sensor_id;sensor_type;location;lat;lon;timestamp;temperature;humidity
35111;DHT22;21290;50.158;8.658;2023-05-29T00:00:32;15.80;99.90
35111;DHT22;21290;50.158;8.658;2023-05-29T00:02:59;15.80;99.90
35111;DHT22;21290;50.158;8.658;2023-05-29T00:05:28;15.80;99.90
35111;DHT22;21290;50.158;8.658;2023-05-29T00:07:55;15.80;99.90
35111;DHT22;21290;50.158;8.658;2023-05-29T00:10:22;15.80;99.90
35111;DHT22;21290;50.158;8.658;2023-05-29T00:12:48;15.70;99.90
35111;DHT22;21290;50.158;8.658;2023-05-29T00:15:15;15.70;99.90
35111;DHT22;21290;50.158;8.658;2023-05-29T00:17:42;15.60;99.90
35111;DHT22;21290;50.158;8.658;2023-05-29T00:20:10;15.60;99.90
35111;DHT22;21290;50.158;8.658;2023-05-29T00:22:38;15.60;99.90
35111;DHT22;21290;50.158;8.658;2023-05-29T00:25:05;15.60;99.90
35111;DHT22;21290;50.158;8.658;2023-05-29T00:27:32;15.50;99.90
35111;DHT22;21290;50.158;8.658;2023-05-29T00:30:02;15.50;99.90
35111;DHT22;21290;50.158;8.658;2023-05-29T00:32:29;15.50;99.90
35111;DHT22;21290;50.158;8.658;2023-05-29T00:34:56;15.40;99.90
35111;DHT22;21290;50.158;8.658;2023-05-29T00:37:22;15.40;99.90
35111;DHT22;21290;50.158;8.658;2023-05-29T00:39:49;15.30;99.90
35111;DHT22;21290;50.158;8.658;2023-05-29T00:42:16;15.10;99.90
35111;DHT22;21290;50.158;8.658;2023-05-29T00:44:44;15.10;99.90
35111;DHT22;21290;50.158;8.658;2023-05-29T00:47:11;15.00;99.90
35111;DHT22;21290;50.158;8.658;2023-05-29T00:49:38;15.00;99.90
35111;DHT22;21290;50.158;8.658;2023-05-29T00:52:05;15.00;99.90
35111;DHT22;21290;50.158;8.658;2023-05-29T00:54:34;15.00;99.90
35111;DHT22;21290;50.158;8.658;2023-05-29T00:57:02;15.00;99.90
35111;DHT22;21290;50.158;8.658;2023-05-29T00:59:32;15.00;99.90
35111;DHT22;21290;50.158;8.658;2023-05-29T01:02:01;15.00;99.90
35111;DHT22;21290;50.158;8.658;2023-05-29T01:04:28;14.90;99.90
35111;DHT22;21290;50.158;8.658;2023-05-29T01:06:55;14.90;99.90
35111;DHT22;21290;50.158;8.658;2023-05-29T01:09:22;14.90;99.90
35111;DHT22;21290;50.158;8.658;2023-05-29T01:17:24;14.60;99.90
35111;DHT22;21290;50.158;8.658;2023-05-29T01:22:51;14.60;99.90
35111;DHT22;21290;50.158;8.658;2023-05-29T01:25:34;14.60;99.90
35111;DHT22;21290;50.158;8.658;2023-05-29T01:28:04;14.50;99.90
35111;DHT22;21290;50.158;8.658;2023-05-29T01:30:31;14.50;99.90
35111;DHT22;21290;50.158;8.658;2023-05-29T01:32:59;14.60;99.90
35111;DHT22;21290;50.158;8.658;2023-05-29T01:35:26;14.60;99.90
35111;DHT22;21290;50.158;8.658;2023-05-29T01:37:53;14.60;99.90
35111;DHT22;21290;50.158;8.658;2023-05-29T01:40:22;14.50;99.90
35111;DHT22;21290;50.158;8.658;2023-05-29T01:42:49;14.40;99.90
35111;DHT22;21290;50.158;8.658;2023-05-29T01:45:16;14.40;99.90
35111;DHT22;21290;50.158;8.658;2023-05-29T01:47:43;14.30;99.90
35111;DHT22;21290;50.158;8.658;2023-05-29T01:50:10;14.20;99.90
35111;DHT22;21290;50.158;8.658;2023-05-29T01:52:39;14.20;99.90
35111;DHT22;21290;50.158;8.658;2023-05-29T01:55:07;14.20;99.90
35111;DHT22;21290;50.158;8.658;2023-05-29T01:57:35;14.20;99.90
35111;DHT22;21290;50.158;8.658;2023-05-29T02:00:03;14.20;99.90
35111;DHT22;21290;50.158;8.658;2023-05-29T02:02:37;14.20;99.90
35111;DHT22;21290;50.158;8.658;2023-05-29T02:05:06;14.10;99.90
35111;DHT22;21290;50.158;8.658;2023-05-29T02:07:36;14.10;99.90
35111;DHT22;21290;50.158;8.658;2023-05-29T02:10:07;14.00;99.90
35111;DHT22;21290;50.158;8.658;2023-05-29T02:12:33;14.00;99.90
35111;DHT22;21290;50.158;8.658;2023-05-29T02:15:00;14.00;99.90
35111;DHT22;21290;50.158;8.658;2023-05-29T02:17:27;14.00;99.90
35111;DHT22;21290;50.158;8.658;2023-05-29T02:19:53;13.90;99.90
35111;DHT22;21290;50.158;8.658;2023-05-29T02:22:20;14.00;99.90
35111;DHT22;21290;50.158;8.658;2023-05-29T02:24:46;14.00;99.90
35111;DHT22;21290;50.158;8.658;2023-05-29T02:27:13;13.90;99.90
35111;DHT22;21290;50.158;8.658;2023-05-29T02:29:40;13.80;99.90
35111;DHT22;21290;50.158;8.658;2023-05-29T02:32:06;13.90;99.90
35111;DHT22;21290;50.158;8.658;2023-05-29T02:34:33;13.80;99.90
35111;DHT22;21290;50.158;8.658;2023-05-29T02:37:00;13.80;99.90
35111;DHT22;21290;50.158;8.658;2023-05-29T02:39:27;13.80;99.90
35111;DHT22;21290;50.158;8.658;2023-05-29T02:41:53;13.70;99.90
35111;DHT22;21290;50.158;8.658;2023-05-29T02:44:21;13.70;99.90
35111;DHT22;21290;50.158;8.658;2023-05-29T02:46:48;13.70;99.90
35111;DHT22;21290;50.158;8.658;2023-05-29T02:49:18;13.70;99.90
35111;DHT22;21290;50.158;8.658;2023-05-29T02:51:45;13.80;99.90
35111;DHT22;21290;50.158;8.658;2023-05-29T02:54:12;13.80;99.90
35111;DHT22;21290;50.158;8.658;2023-05-29T02:56:38;13.70;99.90
35111;DHT22;21290;50.158;8.658;2023-05-29T02:59:05;13.70;99.90
35111;DHT22;21290;50.158;8.658;2023-05-29T03:01:32;13.70;99.90
35111;DHT22;21290;50.158;8.658;2023-05-29T03:03:59;13.80;99.90
35111;DHT22;21290;50.158;8.658;2023-05-29T03:06:26;13.90;99.90
35111;DHT22;21290;50.158;8.658;2023-05-29T03:08:53;13.80;99.90
35111;DHT22;21290;50.158;8.658;2023-05-29T03:11:19;13.80;99.90
35111;DHT22;21290;50.158;8.658;2023-05-29T03:13:49;13.90;99.90
35111;DHT22;21290;50.158;8.658;2023-05-29T03:16:16;13.90;99.90
35111;DHT22;21290;50.158;8.658;2023-05-29T03:18:43;14.00;99.90
35111;DHT22;21290;50.158;8.658;2023-05-29T03:21:10;13.90;99.90
35111;DHT22;21290;50.158;8.658;2023-05-29T03:23:37;13.90;99.90
35111;DHT22;21290;50.158;8.658;2023-05-29T03:26:04;14.00;99.90
35111;DHT22;21290;50.158;8.658;2023-05-29T03:28:31;13.90;99.90
35111;DHT22;21290;50.158;8.658;2023-05-29T03:30:58;13.90;99.90
35111;DHT22;21290;50.158;8.658;2023-05-29T03:33:25;14.00;99.90
35111;DHT22;21290;50.158;8.658;2023-05-29T03:35:51;13.90;99.90
35111;DHT22;21290;50.158;8.658;2023-05-29T03:38:18;13.90;99.90
35111;DHT22;21290;50.158;8.658;2023-05-29T03:40:45;14.00;99.90
35111;DHT22;21290;50.158;8.658;2023-05-29T03:43:11;13.90;99.90
35111;DHT22;21290;50.158;8.658;2023-05-29T03:45:38;13.90;99.90
35111;DHT22;21290;50.158;8.658;2023-05-29T03:48:05;13.90;99.90
35111;DHT22;21290;50.158;8.658;2023-05-29T03:50:31;13.90;99.90
35111;DHT22;21290;50.158;8.658;2023-05-29T03:52:58;13.90;99.90
35111;DHT22;21290;50.158;8.658;2023-05-29T03:55:26;14.00;99.90
35111;DHT22;21290;50.158;8.658;2023-05-29T03:57:53;14.00;99.90
35111;DHT22;21290;50.158;8.658;2023-05-29T04:00:35;13.90;99.90
35111;DHT22;21290;50.158;8.658;2023-05-29T04:03:02;13.90;99.90
35111;DHT22;21290;50.158;8.658;2023-05-29T04:05:29;14.00;99.90
35111;DHT22;21290;50.158;8.658;2023-05-29T04:07:57;14.00;99.90
35111;DHT22;21290;50.158;8.658;2023-05-29T04:10:40;14.10;99.90
35111;DHT22;21290;50.158;8.658;2023-05-29T04:13:07;14.10;99.90
35111;DHT22;21290;50.158;8.658;2023-05-29T04:15:33;14.10;99.90
35111;DHT22;21290;50.158;8.658;2023-05-29T04:18:01;14.10;99.90
35111;DHT22;21290;50.158;8.658;2023-05-29T04:20:27;14.10;99.90
35111;DHT22;21290;50.158;8.658;2023-05-29T04:22:54;14.20;99.90
35111;DHT22;21290;50.158;8.658;2023-05-29T04:25:21;14.30;99.90
35111;DHT22;21290;50.158;8.658;2023-05-29T04:27:48;14.30;99.90
35111;DHT22;21290;50.158;8.658;2023-05-29T04:30:15;14.30;99.90
35111;DHT22;21290;50.158;8.658;2023-05-29T04:32:43;14.30;99.90
35111;DHT22;21290;50.158;8.658;2023-05-29T04:35:10;14.40;99.90
35111;DHT22;21290;50.158;8.658;2023-05-29T04:37:37;14.40;99.90
35111;DHT22;21290;50.158;8.658;2023-05-29T04:40:06;14.40;99.90
35111;DHT22;21290;50.158;8.658;2023-05-29T04:42:36;14.50;99.90
35111;DHT22;21290;50.158;8.658;2023-05-29T04:45:03;14.50;99.90
35111;DHT22;21290;50.158;8.658;2023-05-29T04:47:31;14.50;99.90
35111;DHT22;21290;50.158;8.658;2023-05-29T04:49:59;14.50;99.90
35111;DHT22;21290;50.158;8.658;2023-05-29T04:52:26;14.60;99.90
35111;DHT22;21290;50.158;8.658;2023-05-29T04:54:56;14.60;99.90
35111;DHT22;21290;50.158;8.658;2023-05-29T04:57:23;14.60;99.90
35111;DHT22;21290;50.158;8.658;2023-05-29T04:59:49;14.60;99.90
35111;DHT22;21290;50.158;8.658;2023-05-29T05:02:16;14.70;99.90
35111;DHT22;21290;50.158;8.658;2023-05-29T05:04:43;14.80;99.90
35111;DHT22;21290;50.158;8.658;2023-05-29T05:07:09;14.80;99.90
35111;DHT22;21290;50.158;8.658;2023-05-29T05:09:36;14.90;99.90
35111;DHT22;21290;50.158;8.658;2023-05-29T05:12:03;14.90;99.90
35111;DHT22;21290;50.158;8.658;2023-05-29T05:14:30;15.00;99.90
35111;DHT22;21290;50.158;8.658;2023-05-29T05:16:56;15.00;99.90
35111;DHT22;21290;50.158;8.658;2023-05-29T05:19:23;15.10;99.90
35111;DHT22;21290;50.158;8.658;2023-05-29T05:21:50;15.10;99.90
35111;DHT22;21290;50.158;8.658;2023-05-29T05:24:18;15.10;99.90
35111;DHT22;21290;50.158;8.658;2023-05-29T05:26:45;15.10;99.90
35111;DHT22;21290;50.158;8.658;2023-05-29T05:29:12;15.20;99.90
35111;DHT22;21290;50.158;8.658;2023-05-29T05:31:39;15.20;99.90
35111;DHT22;21290;50.158;8.658;2023-05-29T05:34:05;15.30;99.90
35111;DHT22;21290;50.158;8.658;2023-05-29T05:36:32;15.30;99.90
35111;DHT22;21290;50.158;8.658;2023-05-29T05:38:59;15.30;99.90
35111;DHT22;21290;50.158;8.658;2023-05-29T05:41:26;15.50;99.90
35111;DHT22;21290;50.158;8.658;2023-05-29T05:43:53;15.70;99.90
35111;DHT22;21290;50.158;8.658;2023-05-29T05:46:20;15.70;99.90
35111;DHT22;21290;50.158;8.658;2023-05-29T05:48:46;15.80;99.90
35111;DHT22;21290;50.158;8.658;2023-05-29T05:51:13;15.90;99.90
35111;DHT22;21290;50.158;8.658;2023-05-29T05:53:40;15.90;99.90
35111;DHT22;21290;50.158;8.658;2023-05-29T05:56:07;16.00;99.90
35111;DHT22;21290;50.158;8.658;2023-05-29T05:58:33;16.10;99.90
35111;DHT22;21290;50.158;8.658;2023-05-29T06:01:00;16.20;99.90
35111;DHT22;21290;50.158;8.658;2023-05-29T06:03:27;16.20;99.90
35111;DHT22;21290;50.158;8.658;2023-05-29T06:05:54;16.20;99.90
35111;DHT22;21290;50.158;8.658;2023-05-29T06:08:21;16.40;99.90
35111;DHT22;21290;50.158;8.658;2023-05-29T06:10:48;16.50;99.90
35111;DHT22;21290;50.158;8.658;2023-05-29T06:13:15;16.60;99.90
35111;DHT22;21290;50.158;8.658;2023-05-29T06:15:43;16.70;99.90
35111;DHT22;21290;50.158;8.658;2023-05-29T06:18:10;16.90;99.90
35111;DHT22;21290;50.158;8.658;2023-05-29T06:20:37;16.90;99.90
35111;DHT22;21290;50.158;8.658;2023-05-29T06:23:04;17.10;99.90
35111;DHT22;21290;50.158;8.658;2023-05-29T06:25:30;17.10;99.90
35111;DHT22;21290;50.158;8.658;2023-05-29T06:28:01;17.30;99.90
35111;DHT22;21290;50.158;8.658;2023-05-29T06:30:28;17.40;99.90
35111;DHT22;21290;50.158;8.658;2023-05-29T06:32:55;17.50;99.90
35111;DHT22;21290;50.158;8.658;2023-05-29T06:35:22;17.70;99.90
35111;DHT22;21290;50.158;8.658;2023-05-29T06:37:49;18.00;99.90
35111;DHT22;21290;50.158;8.658;2023-05-29T06:40:15;18.00;99.90
35111;DHT22;21290;50.158;8.658;2023-05-29T06:42:42;18.20;99.90
35111;DHT22;21290;50.158;8.658;2023-05-29T06:45:12;18.40;99.90
35111;DHT22;21290;50.158;8.658;2023-05-29T06:47:40;18.70;99.90
35111;DHT22;21290;50.158;8.658;2023-05-29T06:50:07;18.90;99.90
35111;DHT22;21290;50.158;8.658;2023-05-29T06:52:34;19.20;99.90
35111;DHT22;21290;50.158;8.658;2023-05-29T06:55:01;19.50;99.90
35111;DHT22;21290;50.158;8.658;2023-05-29T06:57:28;19.80;99.90
35111;DHT22;21290;50.158;8.658;2023-05-29T06:59:55;20.10;99.90
35111;DHT22;21290;50.158;8.658;2023-05-29T07:02:22;20.20;99.90
35111;DHT22;21290;50.158;8.658;2023-05-29T07:04:48;20.40;99.90
35111;DHT22;21290;50.158;8.658;2023-05-29T07:07:15;20.70;99.90
35111;DHT22;21290;50.158;8.658;2023-05-29T07:09:41;20.90;99.90
35111;DHT22;21290;50.158;8.658;2023-05-29T07:12:08;21.10;99.90
35111;DHT22;21290;50.158;8.658;2023-05-29T07:14:35;21.10;99.90
35111;DHT22;21290;50.158;8.658;2023-05-29T07:17:01;21.40;99.90
35111;DHT22;21290;50.158;8.658;2023-05-29T07:19:28;21.90;99.90
35111;DHT22;21290;50.158;8.658;2023-05-29T07:21:55;22.50;98.60
35111;DHT22;21290;50.158;8.658;2023-05-29T07:24:22;22.90;97.50
35111;DHT22;21290;50.158;8.658;2023-05-29T07:26:49;23.30;96.30
35111;DHT22;21290;50.158;8.658;2023-05-29T07:29:16;23.50;95.70
35111;DHT22;21290;50.158;8.658;2023-05-29T07:31:44;23.40;95.20
35111;DHT22;21290;50.158;8.658;2023-05-29T07:34:11;23.90;94.80
35111;DHT22;21290;50.158;8.658;2023-05-29T07:37:05;24.80;93.20
35111;DHT22;21290;50.158;8.658;2023-05-29T07:39:33;26.00;91.20
35111;DHT22;21290;50.158;8.658;2023-05-29T07:42:02;26.60;87.70
35111;DHT22;21290;50.158;8.658;2023-05-29T07:44:29;27.10;85.20
35111;DHT22;21290;50.158;8.658;2023-05-29T07:46:56;26.90;83.30
35111;DHT22;21290;50.158;8.658;2023-05-29T07:49:22;26.70;83.90
35111;DHT22;21290;50.158;8.658;2023-05-29T07:51:49;26.20;83.60
35111;DHT22;21290;50.158;8.658;2023-05-29T07:54:16;25.90;84.10
35111;DHT22;21290;50.158;8.658;2023-05-29T07:56:44;25.80;85.10
35111;DHT22;21290;50.158;8.658;2023-05-29T07:59:12;25.70;84.20
35111;DHT22;21290;50.158;8.658;2023-05-29T08:01:39;25.70;84.10
35111;DHT22;21290;50.158;8.658;2023-05-29T08:04:07;25.60;84.00
35111;DHT22;21290;50.158;8.658;2023-05-29T08:06:34;25.70;83.60
35111;DHT22;21290;50.158;8.658;2023-05-29T08:09:01;25.80;83.90
35111;DHT22;21290;50.158;8.658;2023-05-29T08:11:28;25.90;81.90
35111;DHT22;21290;50.158;8.658;2023-05-29T08:13:55;26.30;82.20
35111;DHT22;21290;50.158;8.658;2023-05-29T08:16:21;26.60;80.30
35111;DHT22;21290;50.158;8.658;2023-05-29T08:18:48;27.30;79.40
35111;DHT22;21290;50.158;8.658;2023-05-29T08:21:15;28.10;78.10
35111;DHT22;21290;50.158;8.658;2023-05-29T08:23:42;29.10;75.80
35111;DHT22;21290;50.158;8.658;2023-05-29T08:26:09;30.60;72.40
35111;DHT22;21290;50.158;8.658;2023-05-29T08:28:35;32.30;68.00
35111;DHT22;21290;50.158;8.658;2023-05-29T08:31:02;33.40;65.00
35111;DHT22;21290;50.158;8.658;2023-05-29T08:33:29;34.50;61.10
35111;DHT22;21290;50.158;8.658;2023-05-29T08:35:58;35.20;58.20
35111;DHT22;21290;50.158;8.658;2023-05-29T08:38:25;35.60;56.40
35111;DHT22;21290;50.158;8.658;2023-05-29T08:40:56;36.20;54.70
35111;DHT22;21290;50.158;8.658;2023-05-29T08:43:26;36.60;53.20
35111;DHT22;21290;50.158;8.658;2023-05-29T08:45:56;36.80;52.60
35111;DHT22;21290;50.158;8.658;2023-05-29T08:48:27;37.00;51.50
35111;DHT22;21290;50.158;8.658;2023-05-29T08:50:55;37.40;51.30
35111;DHT22;21290;50.158;8.658;2023-05-29T08:53:23;37.50;50.70
35111;DHT22;21290;50.158;8.658;2023-05-29T08:55:51;37.30;49.90
35111;DHT22;21290;50.158;8.658;2023-05-29T08:58:19;37.80;50.60
35111;DHT22;21290;50.158;8.658;2023-05-29T09:00:53;38.10;49.50
35111;DHT22;21290;50.158;8.658;2023-05-29T09:03:20;38.20;49.10
35111;DHT22;21290;50.158;8.658;2023-05-29T09:05:48;37.60;49.10
35111;DHT22;21290;50.158;8.658;2023-05-29T09:08:16;38.20;48.50
35111;DHT22;21290;50.158;8.658;2023-05-29T09:10:44;38.20;48.30
35111;DHT22;21290;50.158;8.658;2023-05-29T09:13:13;38.60;47.80
35111;DHT22;21290;50.158;8.658;2023-05-29T09:15:41;38.90;47.30
35111;DHT22;21290;50.158;8.658;2023-05-29T09:18:10;38.70;46.50
35111;DHT22;21290;50.158;8.658;2023-05-29T09:20:37;39.00;47.00
35111;DHT22;21290;50.158;8.658;2023-05-29T09:23:07;39.30;46.70
35111;DHT22;21290;50.158;8.658;2023-05-29T09:25:40;39.10;46.50
35111;DHT22;21290;50.158;8.658;2023-05-29T09:28:08;39.40;46.10
35111;DHT22;21290;50.158;8.658;2023-05-29T09:33:04;39.50;45.60
35111;DHT22;21290;50.158;8.658;2023-05-29T09:35:40;39.90;46.20
35111;DHT22;21290;50.158;8.658;2023-05-29T09:38:08;40.00;45.70
35111;DHT22;21290;50.158;8.658;2023-05-29T09:40:36;39.90;46.00
35111;DHT22;21290;50.158;8.658;2023-05-29T09:45:38;40.40;44.80
35111;DHT22;21290;50.158;8.658;2023-05-29T09:48:16;40.50;43.80
35111;DHT22;21290;50.158;8.658;2023-05-29T09:50:43;41.10;44.20
35111;DHT22;21290;50.158;8.658;2023-05-29T09:53:25;41.30;43.50
35111;DHT22;21290;50.158;8.658;2023-05-29T09:55:53;41.70;43.20
35111;DHT22;21290;50.158;8.658;2023-05-29T09:58:22;41.20;42.30
35111;DHT22;21290;50.158;8.658;2023-05-29T10:00:50;41.20;42.30
35111;DHT22;21290;50.158;8.658;2023-05-29T10:03:18;41.10;43.00
35111;DHT22;21290;50.158;8.658;2023-05-29T10:05:49;41.10;42.50
35111;DHT22;21290;50.158;8.658;2023-05-29T10:08:18;41.50;42.00
35111;DHT22;21290;50.158;8.658;2023-05-29T10:10:59;41.50;42.10
35111;DHT22;21290;50.158;8.658;2023-05-29T10:13:32;41.30;42.40
35111;DHT22;21290;50.158;8.658;2023-05-29T10:16:03;41.20;42.00
35111;DHT22;21290;50.158;8.658;2023-05-29T10:18:37;41.60;41.90
35111;DHT22;21290;50.158;8.658;2023-05-29T10:21:07;41.80;41.70
35111;DHT22;21290;50.158;8.658;2023-05-29T10:23:36;41.50;41.40
35111;DHT22;21290;50.158;8.658;2023-05-29T10:26:11;41.50;41.80
35111;DHT22;21290;50.158;8.658;2023-05-29T10:28:43;42.00;42.10
35111;DHT22;21290;50.158;8.658;2023-05-29T10:31:18;41.90;42.00
35111;DHT22;21290;50.158;8.658;2023-05-29T10:34:14;42.00;40.90
35111;DHT22;21290;50.158;8.658;2023-05-29T10:36:51;42.30;41.10
35111;DHT22;21290;50.158;8.658;2023-05-29T10:39:21;42.30;40.90
35111;DHT22;21290;50.158;8.658;2023-05-29T10:41:48;42.70;40.40
35111;DHT22;21290;50.158;8.658;2023-05-29T10:49:26;42.50;41.10
35111;DHT22;21290;50.158;8.658;2023-05-29T10:51:53;42.20;40.80
35111;DHT22;21290;50.158;8.658;2023-05-29T10:54:22;42.20;40.40
35111;DHT22;21290;50.158;8.658;2023-05-29T10:56:58;42.10;40.80
35111;DHT22;21290;50.158;8.658;2023-05-29T10:59:27;42.10;41.10
35111;DHT22;21290;50.158;8.658;2023-05-29T11:01:55;41.80;41.00
35111;DHT22;21290;50.158;8.658;2023-05-29T11:06:53;41.80;40.60
35111;DHT22;21290;50.158;8.658;2023-05-29T11:14:48;41.70;40.10
35111;DHT22;21290;50.158;8.658;2023-05-29T11:25:15;41.60;40.40
35111;DHT22;21290;50.158;8.658;2023-05-29T11:27:44;41.20;40.50
35111;DHT22;21290;50.158;8.658;2023-05-29T11:30:12;40.60;40.50
35111;DHT22;21290;50.158;8.658;2023-05-29T11:32:40;40.90;40.40
35111;DHT22;21290;50.158;8.658;2023-05-29T11:35:10;41.00;40.10
35111;DHT22;21290;50.158;8.658;2023-05-29T11:37:38;40.70;40.90
35111;DHT22;21290;50.158;8.658;2023-05-29T11:40:07;40.70;40.80
35111;DHT22;21290;50.158;8.658;2023-05-29T11:42:36;40.50;40.60
35111;DHT22;21290;50.158;8.658;2023-05-29T11:45:14;40.50;40.30
35111;DHT22;21290;50.158;8.658;2023-05-29T11:47:57;40.60;40.10
35111;DHT22;21290;50.158;8.658;2023-05-29T11:50:31;40.50;40.60
35111;DHT22;21290;50.158;8.658;2023-05-29T11:52:59;39.80;40.10
35111;DHT22;21290;50.158;8.658;2023-05-29T11:55:26;39.30;41.10
35111;DHT22;21290;50.158;8.658;2023-05-29T11:57:58;38.50;41.80
35111;DHT22;21290;50.158;8.658;2023-05-29T12:00:26;37.40;42.80
35111;DHT22;21290;50.158;8.658;2023-05-29T12:02:58;36.20;41.60
35111;DHT22;21290;50.158;8.658;2023-05-29T12:05:44;34.90;42.90
35111;DHT22;21290;50.158;8.658;2023-05-29T12:08:11;34.20;43.40
35111;DHT22;21290;50.158;8.658;2023-05-29T12:10:46;33.50;43.20
35111;DHT22;21290;50.158;8.658;2023-05-29T12:13:13;32.90;44.80
35111;DHT22;21290;50.158;8.658;2023-05-29T12:15:43;32.40;44.50
35111;DHT22;21290;50.158;8.658;2023-05-29T12:18:10;32.00;45.80
35111;DHT22;21290;50.158;8.658;2023-05-29T12:20:37;31.70;46.10
35111;DHT22;21290;50.158;8.658;2023-05-29T12:23:05;31.40;46.90
35111;DHT22;21290;50.158;8.658;2023-05-29T12:25:34;31.10;48.30
35111;DHT22;21290;50.158;8.658;2023-05-29T12:28:03;31.00;49.30
35111;DHT22;21290;50.158;8.658;2023-05-29T12:30:31;30.80;46.80
35111;DHT22;21290;50.158;8.658;2023-05-29T12:33:00;30.70;47.90
35111;DHT22;21290;50.158;8.658;2023-05-29T12:35:29;30.70;48.10
35111;DHT22;21290;50.158;8.658;2023-05-29T12:37:58;30.70;47.40
35111;DHT22;21290;50.158;8.658;2023-05-29T12:40:26;30.60;47.40
35111;DHT22;21290;50.158;8.658;2023-05-29T12:42:55;30.50;48.60
35111;DHT22;21290;50.158;8.658;2023-05-29T12:45:26;30.30;49.10
35111;DHT22;21290;50.158;8.658;2023-05-29T12:47:57;30.20;50.10
35111;DHT22;21290;50.158;8.658;2023-05-29T12:50:27;30.10;49.90
35111;DHT22;21290;50.158;8.658;2023-05-29T12:53:00;30.10;49.90
35111;DHT22;21290;50.158;8.658;2023-05-29T12:55:29;30.10;50.30
35111;DHT22;21290;50.158;8.658;2023-05-29T12:57:56;30.10;50.60
35111;DHT22;21290;50.158;8.658;2023-05-29T13:00:23;30.10;50.00
35111;DHT22;21290;50.158;8.658;2023-05-29T13:02:50;30.10;49.60
35111;DHT22;21290;50.158;8.658;2023-05-29T13:05:17;29.90;50.00
35111;DHT22;21290;50.158;8.658;2023-05-29T13:07:46;29.70;50.10
35111;DHT22;21290;50.158;8.658;2023-05-29T13:10:14;29.60;50.30
35111;DHT22;21290;50.158;8.658;2023-05-29T13:12:41;29.40;50.70
35111;DHT22;21290;50.158;8.658;2023-05-29T13:15:10;29.20;50.90
35111;DHT22;21290;50.158;8.658;2023-05-29T13:17:38;29.20;51.60
35111;DHT22;21290;50.158;8.658;2023-05-29T13:20:09;29.30;51.00
35111;DHT22;21290;50.158;8.658;2023-05-29T13:22:37;29.40;51.10
35111;DHT22;21290;50.158;8.658;2023-05-29T13:25:05;29.30;51.40
35111;DHT22;21290;50.158;8.658;2023-05-29T13:27:37;29.20;51.60
35111;DHT22;21290;50.158;8.658;2023-05-29T13:30:04;29.00;51.80
35111;DHT22;21290;50.158;8.658;2023-05-29T13:32:32;29.10;52.80
35111;DHT22;21290;50.158;8.658;2023-05-29T13:34:59;29.10;52.00
35111;DHT22;21290;50.158;8.658;2023-05-29T13:37:26;29.20;51.80
35111;DHT22;21290;50.158;8.658;2023-05-29T13:39:54;29.20;52.30
35111;DHT22;21290;50.158;8.658;2023-05-29T13:42:21;29.20;52.20
35111;DHT22;21290;50.158;8.658;2023-05-29T13:44:48;29.20;52.60
35111;DHT22;21290;50.158;8.658;2023-05-29T13:47:15;29.10;52.50
35111;DHT22;21290;50.158;8.658;2023-05-29T13:49:42;29.10;52.40
35111;DHT22;21290;50.158;8.658;2023-05-29T13:52:09;29.10;52.50
35111;DHT22;21290;50.158;8.658;2023-05-29T13:54:36;29.10;53.20
35111;DHT22;21290;50.158;8.658;2023-05-29T13:57:04;29.00;53.10
35111;DHT22;21290;50.158;8.658;2023-05-29T13:59:31;29.00;52.50
35111;DHT22;21290;50.158;8.658;2023-05-29T14:01:58;29.00;53.00
35111;DHT22;21290;50.158;8.658;2023-05-29T14:04:25;29.00;53.50
35111;DHT22;21290;50.158;8.658;2023-05-29T14:06:52;29.00;52.80
35111;DHT22;21290;50.158;8.658;2023-05-29T14:09:19;28.90;53.20
35111;DHT22;21290;50.158;8.658;2023-05-29T14:11:54;28.70;54.00
35111;DHT22;21290;50.158;8.658;2023-05-29T14:14:21;28.80;53.70
35111;DHT22;21290;50.158;8.658;2023-05-29T14:16:49;28.70;53.30
35111;DHT22;21290;50.158;8.658;2023-05-29T14:19:17;28.70;53.50
35111;DHT22;21290;50.158;8.658;2023-05-29T14:21:44;28.50;53.80
35111;DHT22;21290;50.158;8.658;2023-05-29T14:24:12;28.40;54.50
35111;DHT22;21290;50.158;8.658;2023-05-29T14:26:39;28.40;55.00
35111;DHT22;21290;50.158;8.658;2023-05-29T14:29:06;28.20;54.80
35111;DHT22;21290;50.158;8.658;2023-05-29T14:31:41;28.00;54.80
35111;DHT22;21290;50.158;8.658;2023-05-29T14:34:09;27.80;55.60
35111;DHT22;21290;50.158;8.658;2023-05-29T14:36:36;27.90;55.90
35111;DHT22;21290;50.158;8.658;2023-05-29T14:39:03;27.80;56.10
35111;DHT22;21290;50.158;8.658;2023-05-29T14:41:31;27.80;55.80
35111;DHT22;21290;50.158;8.658;2023-05-29T14:43:58;27.80;55.80
35111;DHT22;21290;50.158;8.658;2023-05-29T14:46:25;27.70;56.00
35111;DHT22;21290;50.158;8.658;2023-05-29T14:48:53;27.50;56.60
35111;DHT22;21290;50.158;8.658;2023-05-29T14:51:20;27.50;56.30
35111;DHT22;21290;50.158;8.658;2023-05-29T14:53:47;27.40;56.70
35111;DHT22;21290;50.158;8.658;2023-05-29T14:56:14;27.40;57.00
35111;DHT22;21290;50.158;8.658;2023-05-29T14:58:41;27.30;56.80
35111;DHT22;21290;50.158;8.658;2023-05-29T15:01:08;27.20;56.40
35111;DHT22;21290;50.158;8.658;2023-05-29T15:03:35;27.20;56.20
35111;DHT22;21290;50.158;8.658;2023-05-29T15:06:03;27.20;56.30
35111;DHT22;21290;50.158;8.658;2023-05-29T15:08:30;27.10;56.20
35111;DHT22;21290;50.158;8.658;2023-05-29T15:11:01;27.10;56.80
35111;DHT22;21290;50.158;8.658;2023-05-29T15:13:31;27.10;56.70
35111;DHT22;21290;50.158;8.658;2023-05-29T15:15:58;27.20;57.00
35111;DHT22;21290;50.158;8.658;2023-05-29T15:18:26;27.20;57.00
35111;DHT22;21290;50.158;8.658;2023-05-29T15:20:53;27.20;57.10
35111;DHT22;21290;50.158;8.658;2023-05-29T15:23:21;27.10;56.90
35111;DHT22;21290;50.158;8.658;2023-05-29T15:25:50;27.10;57.00
35111;DHT22;21290;50.158;8.658;2023-05-29T15:28:16;27.10;58.00
35111;DHT22;21290;50.158;8.658;2023-05-29T15:30:44;27.00;58.10
35111;DHT22;21290;50.158;8.658;2023-05-29T15:33:11;27.00;57.20
35111;DHT22;21290;50.158;8.658;2023-05-29T15:35:37;26.90;57.20
35111;DHT22;21290;50.158;8.658;2023-05-29T15:38:04;26.80;57.60
35111;DHT22;21290;50.158;8.658;2023-05-29T15:40:31;26.80;58.00
35111;DHT22;21290;50.158;8.658;2023-05-29T15:42:58;26.70;57.90
35111;DHT22;21290;50.158;8.658;2023-05-29T15:45:24;26.60;57.90
35111;DHT22;21290;50.158;8.658;2023-05-29T15:47:52;26.50;57.80
35111;DHT22;21290;50.158;8.658;2023-05-29T15:50:19;26.40;58.20
35111;DHT22;21290;50.158;8.658;2023-05-29T15:52:46;26.30;58.40
35111;DHT22;21290;50.158;8.658;2023-05-29T15:55:21;26.20;59.70
35111;DHT22;21290;50.158;8.658;2023-05-29T15:57:48;26.20;58.90
35111;DHT22;21290;50.158;8.658;2023-05-29T16:00:15;26.10;59.50
35111;DHT22;21290;50.158;8.658;2023-05-29T16:02:43;26.10;59.30
35111;DHT22;21290;50.158;8.658;2023-05-29T16:05:10;26.00;59.50
35111;DHT22;21290;50.158;8.658;2023-05-29T16:07:37;25.90;59.80
35111;DHT22;21290;50.158;8.658;2023-05-29T16:10:04;25.80;59.70